<?xml version="1.0" encoding="UTF-8" standalone="no" ?>
<gpx xmlns="http://www.topografix.com/GPX/1/1" xmlns:xsi="http://www.w3.org/2001/XMLSchema-instance" xsi:schemaLocation="http://www.topografix.com/GPX/1/1 http://www.topografix.com/GPX/1/1/gpx.xsd" version="1.1" creator="VisuGPX - https://www.visugpx.com">
  <metadata>
    <name>Prospection chemins praticables 1</name>
  </metadata>
  <trk>
    <name><![CDATA[Prospection chemins praticables 1_5]]></name>
    <trkseg>
      <trkpt lat="47.71136" lon="5.08292">
        <ele>440.12</ele>
        <time>2021-08-27T14:06:43Z</time>
      </trkpt>
      <trkpt lat="47.71129" lon="5.08289">
        <ele>439.06</ele>
        <time>2021-08-27T14:07:00Z</time>
      </trkpt>
      <trkpt lat="47.71126" lon="5.08286">
        <ele>437.16</ele>
        <time>2021-08-27T14:07:17Z</time>
      </trkpt>
      <trkpt lat="47.71124" lon="5.08286">
        <ele>436.68</ele>
        <time>2021-08-27T14:07:38Z</time>
      </trkpt>
      <trkpt lat="47.71123" lon="5.08287">
        <ele>436.78</ele>
        <time>2021-08-27T14:08:15Z</time>
      </trkpt>
      <trkpt lat="47.7112" lon="5.08297">
        <ele>438.31</ele>
        <time>2021-08-27T14:08:32Z</time>
      </trkpt>
      <trkpt lat="47.71118" lon="5.08304">
        <ele>440.32</ele>
        <time>2021-08-27T14:08:43Z</time>
      </trkpt>
      <trkpt lat="47.71117" lon="5.08318">
        <ele>442.81</ele>
        <time>2021-08-27T14:08:56Z</time>
      </trkpt>
      <trkpt lat="47.71114" lon="5.08331">
        <ele>444.32</ele>
        <time>2021-08-27T14:09:06Z</time>
      </trkpt>
      <trkpt lat="47.71109" lon="5.08339">
        <ele>444.74</ele>
        <time>2021-08-27T14:09:27Z</time>
      </trkpt>
      <trkpt lat="47.71106" lon="5.08353">
        <ele>445.74</ele>
        <time>2021-08-27T14:09:51Z</time>
      </trkpt>
      <trkpt lat="47.71106" lon="5.08352">
        <ele>445.77</ele>
        <time>2021-08-27T14:10:00Z</time>
      </trkpt>
      <trkpt lat="47.71107" lon="5.08361">
        <ele>447.23</ele>
        <time>2021-08-27T14:10:14Z</time>
      </trkpt>
      <trkpt lat="47.71104" lon="5.08377">
        <ele>449.53</ele>
        <time>2021-08-27T14:10:28Z</time>
      </trkpt>
      <trkpt lat="47.71101" lon="5.08393">
        <ele>451.29</ele>
        <time>2021-08-27T14:10:40Z</time>
      </trkpt>
      <trkpt lat="47.71096" lon="5.08413">
        <ele>453.79</ele>
        <time>2021-08-27T14:10:55Z</time>
      </trkpt>
      <trkpt lat="47.71091" lon="5.0843">
        <ele>456.42</ele>
        <time>2021-08-27T14:11:10Z</time>
      </trkpt>
      <trkpt lat="47.71088" lon="5.08439">
        <ele>457.61</ele>
        <time>2021-08-27T14:11:18Z</time>
      </trkpt>
      <trkpt lat="47.71085" lon="5.08455">
        <ele>460.01</ele>
        <time>2021-08-27T14:11:33Z</time>
      </trkpt>
      <trkpt lat="47.71088" lon="5.08463">
        <ele>461.15</ele>
        <time>2021-08-27T14:11:48Z</time>
      </trkpt>
      <trkpt lat="47.71098" lon="5.08472">
        <ele>463.12</ele>
        <time>2021-08-27T14:12:03Z</time>
      </trkpt>
      <trkpt lat="47.71102" lon="5.08477">
        <ele>464.22</ele>
        <time>2021-08-27T14:12:18Z</time>
      </trkpt>
      <trkpt lat="47.71115" lon="5.08486">
        <ele>465.89</ele>
        <time>2021-08-27T14:12:31Z</time>
      </trkpt>
      <trkpt lat="47.71126" lon="5.08497">
        <ele>467.58</ele>
        <time>2021-08-27T14:12:45Z</time>
      </trkpt>
      <trkpt lat="47.71135" lon="5.08505">
        <ele>469.41</ele>
        <time>2021-08-27T14:12:58Z</time>
      </trkpt>
      <trkpt lat="47.71144" lon="5.08513">
        <ele>471.87</ele>
        <time>2021-08-27T14:13:12Z</time>
      </trkpt>
      <trkpt lat="47.71153" lon="5.08518">
        <ele>472.79</ele>
        <time>2021-08-27T14:13:27Z</time>
      </trkpt>
      <trkpt lat="47.7116" lon="5.08524">
        <ele>474.35</ele>
        <time>2021-08-27T14:13:36Z</time>
      </trkpt>
      <trkpt lat="47.71171" lon="5.08537">
        <ele>474.84</ele>
        <time>2021-08-27T14:13:51Z</time>
      </trkpt>
      <trkpt lat="47.71179" lon="5.08546">
        <ele>474.23</ele>
        <time>2021-08-27T14:14:03Z</time>
      </trkpt>
      <trkpt lat="47.71185" lon="5.08555">
        <ele>474.16</ele>
        <time>2021-08-27T14:14:15Z</time>
      </trkpt>
      <trkpt lat="47.71192" lon="5.08566">
        <ele>473.89</ele>
        <time>2021-08-27T14:14:28Z</time>
      </trkpt>
      <trkpt lat="47.71196" lon="5.08567">
        <ele>473.51</ele>
        <time>2021-08-27T14:14:36Z</time>
      </trkpt>
      <trkpt lat="47.71203" lon="5.08571">
        <ele>472.33</ele>
        <time>2021-08-27T14:14:48Z</time>
      </trkpt>
      <trkpt lat="47.71206" lon="5.0857">
        <ele>471.82</ele>
        <time>2021-08-27T14:15:27Z</time>
      </trkpt>
      <trkpt lat="47.71206" lon="5.08571">
        <ele>472.06</ele>
        <time>2021-08-27T14:15:34Z</time>
      </trkpt>
      <trkpt lat="47.712" lon="5.08585">
        <ele>473.83</ele>
        <time>2021-08-27T14:15:44Z</time>
      </trkpt>
      <trkpt lat="47.71191" lon="5.08604">
        <ele>476.12</ele>
        <time>2021-08-27T14:15:59Z</time>
      </trkpt>
      <trkpt lat="47.71191" lon="5.08605">
        <ele>476.21</ele>
        <time>2021-08-27T14:16:01Z</time>
      </trkpt>
      <trkpt lat="47.71202" lon="5.08587">
        <ele>474.7</ele>
        <time>2021-08-27T14:16:17Z</time>
      </trkpt>
      <trkpt lat="47.71208" lon="5.08572">
        <ele>472.24</ele>
        <time>2021-08-27T14:16:33Z</time>
      </trkpt>
      <trkpt lat="47.71209" lon="5.08573">
        <ele>472.09</ele>
        <time>2021-08-27T14:16:34Z</time>
      </trkpt>
      <trkpt lat="47.71217" lon="5.08579">
        <ele>471.43</ele>
        <time>2021-08-27T14:16:44Z</time>
      </trkpt>
      <trkpt lat="47.71221" lon="5.08586">
        <ele>471.11</ele>
        <time>2021-08-27T14:16:53Z</time>
      </trkpt>
      <trkpt lat="47.7123" lon="5.08596">
        <ele>470.86</ele>
        <time>2021-08-27T14:17:06Z</time>
      </trkpt>
      <trkpt lat="47.71237" lon="5.08602">
        <ele>470.51</ele>
        <time>2021-08-27T14:17:19Z</time>
      </trkpt>
      <trkpt lat="47.71249" lon="5.08611">
        <ele>470.02</ele>
        <time>2021-08-27T14:17:32Z</time>
      </trkpt>
      <trkpt lat="47.71259" lon="5.08626">
        <ele>469.71</ele>
        <time>2021-08-27T14:17:51Z</time>
      </trkpt>
      <trkpt lat="47.71263" lon="5.0863">
        <ele>469.73</ele>
        <time>2021-08-27T14:18:38Z</time>
      </trkpt>
      <trkpt lat="47.71275" lon="5.08644">
        <ele>469.29</ele>
        <time>2021-08-27T14:18:53Z</time>
      </trkpt>
      <trkpt lat="47.71279" lon="5.08652">
        <ele>469.32</ele>
        <time>2021-08-27T14:19:07Z</time>
      </trkpt>
      <trkpt lat="47.71271" lon="5.08667">
        <ele>470.39</ele>
        <time>2021-08-27T14:19:21Z</time>
      </trkpt>
      <trkpt lat="47.71266" lon="5.08676">
        <ele>470.74</ele>
        <time>2021-08-27T14:19:28Z</time>
      </trkpt>
      <trkpt lat="47.71261" lon="5.08683">
        <ele>471.36</ele>
        <time>2021-08-27T14:19:34Z</time>
      </trkpt>
      <trkpt lat="47.71248" lon="5.08702">
        <ele>474.11</ele>
        <time>2021-08-27T14:19:54Z</time>
      </trkpt>
      <trkpt lat="47.7124" lon="5.08704">
        <ele>474.32</ele>
        <time>2021-08-27T14:20:09Z</time>
      </trkpt>
      <trkpt lat="47.71244" lon="5.08697">
        <ele>472.29</ele>
        <time>2021-08-27T14:20:20Z</time>
      </trkpt>
      <trkpt lat="47.71255" lon="5.08682">
        <ele>471.4</ele>
        <time>2021-08-27T14:20:32Z</time>
      </trkpt>
      <trkpt lat="47.71262" lon="5.08673">
        <ele>470.65</ele>
        <time>2021-08-27T14:20:42Z</time>
      </trkpt>
      <trkpt lat="47.71266" lon="5.08667">
        <ele>470.62</ele>
        <time>2021-08-27T14:20:47Z</time>
      </trkpt>
      <trkpt lat="47.71268" lon="5.08665">
        <ele>470.46</ele>
        <time>2021-08-27T14:20:49Z</time>
      </trkpt>
      <trkpt lat="47.71275" lon="5.08653">
        <ele>469.13</ele>
        <time>2021-08-27T14:21:02Z</time>
      </trkpt>
      <trkpt lat="47.71289" lon="5.08655">
        <ele>468.42</ele>
        <time>2021-08-27T14:21:16Z</time>
      </trkpt>
      <trkpt lat="47.71302" lon="5.08671">
        <ele>467.49</ele>
        <time>2021-08-27T14:21:31Z</time>
      </trkpt>
      <trkpt lat="47.71311" lon="5.08679">
        <ele>466.9</ele>
        <time>2021-08-27T14:21:44Z</time>
      </trkpt>
      <trkpt lat="47.7132" lon="5.08686">
        <ele>466.33</ele>
        <time>2021-08-27T14:21:56Z</time>
      </trkpt>
      <trkpt lat="47.71327" lon="5.08696">
        <ele>465.8</ele>
        <time>2021-08-27T14:22:04Z</time>
      </trkpt>
      <trkpt lat="47.71329" lon="5.08706">
        <ele>465.94</ele>
        <time>2021-08-27T14:22:23Z</time>
      </trkpt>
      <trkpt lat="47.71331" lon="5.08717">
        <ele>465.24</ele>
        <time>2021-08-27T14:22:40Z</time>
      </trkpt>
      <trkpt lat="47.71336" lon="5.08738">
        <ele>463.84</ele>
        <time>2021-08-27T14:22:56Z</time>
      </trkpt>
      <trkpt lat="47.71339" lon="5.08747">
        <ele>463.35</ele>
        <time>2021-08-27T14:23:06Z</time>
      </trkpt>
      <trkpt lat="47.71344" lon="5.0877">
        <ele>462.89</ele>
        <time>2021-08-27T14:23:19Z</time>
      </trkpt>
      <trkpt lat="47.71347" lon="5.08793">
        <ele>461.75</ele>
        <time>2021-08-27T14:23:34Z</time>
      </trkpt>
      <trkpt lat="47.71343" lon="5.08806">
        <ele>462.22</ele>
        <time>2021-08-27T14:23:46Z</time>
      </trkpt>
      <trkpt lat="47.71343" lon="5.08807">
        <ele>462.15</ele>
        <time>2021-08-27T14:23:51Z</time>
      </trkpt>
      <trkpt lat="47.71341" lon="5.0881">
        <ele>462.51</ele>
        <time>2021-08-27T14:23:54Z</time>
      </trkpt>
      <trkpt lat="47.71338" lon="5.08816">
        <ele>462.94</ele>
        <time>2021-08-27T14:23:59Z</time>
      </trkpt>
      <trkpt lat="47.71324" lon="5.08839">
        <ele>464.5</ele>
        <time>2021-08-27T14:24:17Z</time>
      </trkpt>
      <trkpt lat="47.71323" lon="5.08842">
        <ele>464.68</ele>
        <time>2021-08-27T14:24:19Z</time>
      </trkpt>
      <trkpt lat="47.71317" lon="5.08852">
        <ele>465.4</ele>
        <time>2021-08-27T14:24:27Z</time>
      </trkpt>
      <trkpt lat="47.71314" lon="5.08862">
        <ele>466</ele>
        <time>2021-08-27T14:24:33Z</time>
      </trkpt>
      <trkpt lat="47.71312" lon="5.08866">
        <ele>466.32</ele>
        <time>2021-08-27T14:24:36Z</time>
      </trkpt>
      <trkpt lat="47.71305" lon="5.08879">
        <ele>467.26</ele>
        <time>2021-08-27T14:24:48Z</time>
      </trkpt>
      <trkpt lat="47.713" lon="5.08886">
        <ele>467.36</ele>
        <time>2021-08-27T14:24:53Z</time>
      </trkpt>
      <trkpt lat="47.71296" lon="5.08897">
        <ele>467.94</ele>
        <time>2021-08-27T14:25:07Z</time>
      </trkpt>
      <trkpt lat="47.71289" lon="5.08911">
        <ele>468.57</ele>
        <time>2021-08-27T14:25:19Z</time>
      </trkpt>
      <trkpt lat="47.71288" lon="5.08912">
        <ele>468.62</ele>
        <time>2021-08-27T14:25:20Z</time>
      </trkpt>
      <trkpt lat="47.71284" lon="5.08918">
        <ele>468.88</ele>
        <time>2021-08-27T14:25:24Z</time>
      </trkpt>
      <trkpt lat="47.71275" lon="5.08937">
        <ele>470.25</ele>
        <time>2021-08-27T14:25:40Z</time>
      </trkpt>
      <trkpt lat="47.71264" lon="5.08954">
        <ele>471.19</ele>
        <time>2021-08-27T14:25:53Z</time>
      </trkpt>
      <trkpt lat="47.71257" lon="5.08967">
        <ele>472.4</ele>
        <time>2021-08-27T14:26:06Z</time>
      </trkpt>
      <trkpt lat="47.71249" lon="5.08982">
        <ele>473.38</ele>
        <time>2021-08-27T14:26:19Z</time>
      </trkpt>
      <trkpt lat="47.71247" lon="5.08989">
        <ele>473.58</ele>
        <time>2021-08-27T14:26:32Z</time>
      </trkpt>
      <trkpt lat="47.71242" lon="5.08992">
        <ele>474.07</ele>
        <time>2021-08-27T14:26:44Z</time>
      </trkpt>
      <trkpt lat="47.71239" lon="5.08995">
        <ele>474.65</ele>
        <time>2021-08-27T14:26:49Z</time>
      </trkpt>
      <trkpt lat="47.71237" lon="5.09002">
        <ele>475.37</ele>
        <time>2021-08-27T14:26:55Z</time>
      </trkpt>
      <trkpt lat="47.71239" lon="5.09015">
        <ele>476.2</ele>
        <time>2021-08-27T14:27:05Z</time>
      </trkpt>
      <trkpt lat="47.71237" lon="5.09039">
        <ele>476.9</ele>
        <time>2021-08-27T14:27:18Z</time>
      </trkpt>
      <trkpt lat="47.71237" lon="5.09056">
        <ele>477.72</ele>
        <time>2021-08-27T14:27:29Z</time>
      </trkpt>
      <trkpt lat="47.71236" lon="5.09071">
        <ele>478.21</ele>
        <time>2021-08-27T14:27:37Z</time>
      </trkpt>
      <trkpt lat="47.71236" lon="5.09074">
        <ele>478.42</ele>
        <time>2021-08-27T14:27:39Z</time>
      </trkpt>
      <trkpt lat="47.71231" lon="5.09097">
        <ele>479.71</ele>
        <time>2021-08-27T14:27:53Z</time>
      </trkpt>
      <trkpt lat="47.71231" lon="5.09101">
        <ele>480.06</ele>
        <time>2021-08-27T14:27:56Z</time>
      </trkpt>
      <trkpt lat="47.71229" lon="5.09123">
        <ele>481.14</ele>
        <time>2021-08-27T14:28:11Z</time>
      </trkpt>
      <trkpt lat="47.71227" lon="5.09144">
        <ele>482.2</ele>
        <time>2021-08-27T14:28:24Z</time>
      </trkpt>
      <trkpt lat="47.71224" lon="5.09165">
        <ele>482.84</ele>
        <time>2021-08-27T14:28:36Z</time>
      </trkpt>
      <trkpt lat="47.71219" lon="5.09176">
        <ele>483.3</ele>
        <time>2021-08-27T14:28:43Z</time>
      </trkpt>
      <trkpt lat="47.71217" lon="5.09179">
        <ele>483.53</ele>
        <time>2021-08-27T14:28:45Z</time>
      </trkpt>
      <trkpt lat="47.71216" lon="5.09197">
        <ele>483.76</ele>
        <time>2021-08-27T14:28:56Z</time>
      </trkpt>
      <trkpt lat="47.71218" lon="5.09219">
        <ele>484.26</ele>
        <time>2021-08-27T14:29:10Z</time>
      </trkpt>
      <trkpt lat="47.71218" lon="5.09222">
        <ele>484.41</ele>
        <time>2021-08-27T14:29:17Z</time>
      </trkpt>
      <trkpt lat="47.71204" lon="5.09208">
        <ele>484.89</ele>
        <time>2021-08-27T14:29:33Z</time>
      </trkpt>
      <trkpt lat="47.712" lon="5.09199">
        <ele>483.54</ele>
        <time>2021-08-27T14:29:46Z</time>
      </trkpt>
      <trkpt lat="47.71208" lon="5.09181">
        <ele>482.84</ele>
        <time>2021-08-27T14:30:01Z</time>
      </trkpt>
      <trkpt lat="47.71212" lon="5.09182">
        <ele>482.86</ele>
        <time>2021-08-27T14:30:04Z</time>
      </trkpt>
      <trkpt lat="47.71217" lon="5.09203">
        <ele>483.82</ele>
        <time>2021-08-27T14:30:18Z</time>
      </trkpt>
      <trkpt lat="47.71219" lon="5.09225">
        <ele>484.22</ele>
        <time>2021-08-27T14:30:33Z</time>
      </trkpt>
      <trkpt lat="47.71223" lon="5.09239">
        <ele>483.83</ele>
        <time>2021-08-27T14:30:43Z</time>
      </trkpt>
      <trkpt lat="47.71227" lon="5.0925">
        <ele>483.83</ele>
        <time>2021-08-27T14:30:50Z</time>
      </trkpt>
      <trkpt lat="47.71232" lon="5.09261">
        <ele>483.56</ele>
        <time>2021-08-27T14:30:59Z</time>
      </trkpt>
      <trkpt lat="47.71244" lon="5.09282">
        <ele>483.3</ele>
        <time>2021-08-27T14:31:14Z</time>
      </trkpt>
      <trkpt lat="47.71247" lon="5.09286">
        <ele>483.28</ele>
        <time>2021-08-27T14:31:17Z</time>
      </trkpt>
      <trkpt lat="47.71248" lon="5.09292">
        <ele>483.23</ele>
        <time>2021-08-27T14:31:20Z</time>
      </trkpt>
      <trkpt lat="47.71249" lon="5.09322">
        <ele>483.29</ele>
        <time>2021-08-27T14:31:36Z</time>
      </trkpt>
      <trkpt lat="47.71246" lon="5.0934">
        <ele>483.24</ele>
        <time>2021-08-27T14:31:52Z</time>
      </trkpt>
      <trkpt lat="47.71246" lon="5.09341">
        <ele>482.75</ele>
        <time>2021-08-27T14:32:13Z</time>
      </trkpt>
      <trkpt lat="47.71246" lon="5.09337">
        <ele>482.43</ele>
        <time>2021-08-27T14:33:01Z</time>
      </trkpt>
      <trkpt lat="47.71235" lon="5.09353">
        <ele>482.41</ele>
        <time>2021-08-27T14:33:10Z</time>
      </trkpt>
      <trkpt lat="47.71237" lon="5.09413">
        <ele>480.59</ele>
        <time>2021-08-27T14:33:22Z</time>
      </trkpt>
      <trkpt lat="47.71241" lon="5.09431">
        <ele>479.65</ele>
        <time>2021-08-27T14:33:27Z</time>
      </trkpt>
      <trkpt lat="47.71239" lon="5.09438">
        <ele>479.58</ele>
        <time>2021-08-27T14:33:31Z</time>
      </trkpt>
      <trkpt lat="47.71236" lon="5.09438">
        <ele>479.71</ele>
        <time>2021-08-27T14:33:33Z</time>
      </trkpt>
      <trkpt lat="47.71234" lon="5.09435">
        <ele>479.72</ele>
        <time>2021-08-27T14:33:34Z</time>
      </trkpt>
      <trkpt lat="47.7117" lon="5.09397">
        <ele>482.07</ele>
        <time>2021-08-27T14:33:44Z</time>
      </trkpt>
      <trkpt lat="47.71082" lon="5.09332">
        <ele>484.55</ele>
        <time>2021-08-27T14:33:58Z</time>
      </trkpt>
      <trkpt lat="47.70995" lon="5.09229">
        <ele>484.76</ele>
        <time>2021-08-27T14:34:16Z</time>
      </trkpt>
      <trkpt lat="47.70941" lon="5.09134">
        <ele>485</ele>
        <time>2021-08-27T14:34:29Z</time>
      </trkpt>
      <trkpt lat="47.70885" lon="5.09034">
        <ele>485.67</ele>
        <time>2021-08-27T14:34:43Z</time>
      </trkpt>
      <trkpt lat="47.70856" lon="5.08945">
        <ele>486.3</ele>
        <time>2021-08-27T14:34:55Z</time>
      </trkpt>
      <trkpt lat="47.70844" lon="5.08921">
        <ele>486.53</ele>
        <time>2021-08-27T14:35:10Z</time>
      </trkpt>
      <trkpt lat="47.70839" lon="5.08912">
        <ele>486.56</ele>
        <time>2021-08-27T14:35:22Z</time>
      </trkpt>
      <trkpt lat="47.70843" lon="5.08914">
        <ele>486.39</ele>
        <time>2021-08-27T14:35:37Z</time>
      </trkpt>
      <trkpt lat="47.70845" lon="5.08914">
        <ele>486.91</ele>
        <time>2021-08-27T14:35:51Z</time>
      </trkpt>
      <trkpt lat="47.70846" lon="5.08914">
        <ele>486.94</ele>
        <time>2021-08-27T14:36:05Z</time>
      </trkpt>
      <trkpt lat="47.70847" lon="5.08915">
        <ele>486.8</ele>
        <time>2021-08-27T14:36:19Z</time>
      </trkpt>
      <trkpt lat="47.70845" lon="5.08923">
        <ele>487.31</ele>
        <time>2021-08-27T14:36:29Z</time>
      </trkpt>
      <trkpt lat="47.70853" lon="5.0894">
        <ele>487.3</ele>
        <time>2021-08-27T14:36:44Z</time>
      </trkpt>
      <trkpt lat="47.70853" lon="5.08941">
        <ele>487.33</ele>
        <time>2021-08-27T14:36:45Z</time>
      </trkpt>
      <trkpt lat="47.70852" lon="5.08953">
        <ele>487.69</ele>
        <time>2021-08-27T14:36:58Z</time>
      </trkpt>
      <trkpt lat="47.70847" lon="5.08957">
        <ele>487.47</ele>
        <time>2021-08-27T14:37:14Z</time>
      </trkpt>
      <trkpt lat="47.70853" lon="5.08953">
        <ele>487.62</ele>
        <time>2021-08-27T14:37:23Z</time>
      </trkpt>
      <trkpt lat="47.70856" lon="5.08951">
        <ele>487.71</ele>
        <time>2021-08-27T14:37:26Z</time>
      </trkpt>
      <trkpt lat="47.70859" lon="5.0895">
        <ele>487.62</ele>
        <time>2021-08-27T14:37:29Z</time>
      </trkpt>
      <trkpt lat="47.70872" lon="5.08947">
        <ele>488.02</ele>
        <time>2021-08-27T14:37:45Z</time>
      </trkpt>
      <trkpt lat="47.70883" lon="5.08943">
        <ele>487.97</ele>
        <time>2021-08-27T14:37:54Z</time>
      </trkpt>
      <trkpt lat="47.70897" lon="5.08943">
        <ele>488</ele>
        <time>2021-08-27T14:38:08Z</time>
      </trkpt>
      <trkpt lat="47.70903" lon="5.08941">
        <ele>488.11</ele>
        <time>2021-08-27T14:38:12Z</time>
      </trkpt>
      <trkpt lat="47.70917" lon="5.08936">
        <ele>487.59</ele>
        <time>2021-08-27T14:38:28Z</time>
      </trkpt>
      <trkpt lat="47.70932" lon="5.08934">
        <ele>487.65</ele>
        <time>2021-08-27T14:38:45Z</time>
      </trkpt>
      <trkpt lat="47.70946" lon="5.08931">
        <ele>487.45</ele>
        <time>2021-08-27T14:38:59Z</time>
      </trkpt>
      <trkpt lat="47.70966" lon="5.08928">
        <ele>487.27</ele>
        <time>2021-08-27T14:39:22Z</time>
      </trkpt>
      <trkpt lat="47.70985" lon="5.08919">
        <ele>487.17</ele>
        <time>2021-08-27T14:39:39Z</time>
      </trkpt>
      <trkpt lat="47.70998" lon="5.0892">
        <ele>487.01</ele>
        <time>2021-08-27T14:39:53Z</time>
      </trkpt>
      <trkpt lat="47.70994" lon="5.08916">
        <ele>487.07</ele>
        <time>2021-08-27T14:40:00Z</time>
      </trkpt>
      <trkpt lat="47.70996" lon="5.0891">
        <ele>487.1</ele>
        <time>2021-08-27T14:40:09Z</time>
      </trkpt>
      <trkpt lat="47.71007" lon="5.08925">
        <ele>487.48</ele>
        <time>2021-08-27T14:40:23Z</time>
      </trkpt>
      <trkpt lat="47.71009" lon="5.08918">
        <ele>487.65</ele>
        <time>2021-08-27T14:40:35Z</time>
      </trkpt>
      <trkpt lat="47.71011" lon="5.08916">
        <ele>487.59</ele>
        <time>2021-08-27T14:40:37Z</time>
      </trkpt>
      <trkpt lat="47.71015" lon="5.08902">
        <ele>487.29</ele>
        <time>2021-08-27T14:40:50Z</time>
      </trkpt>
      <trkpt lat="47.71025" lon="5.08888">
        <ele>487.61</ele>
        <time>2021-08-27T14:41:02Z</time>
      </trkpt>
      <trkpt lat="47.71036" lon="5.08869">
        <ele>487.77</ele>
        <time>2021-08-27T14:41:18Z</time>
      </trkpt>
      <trkpt lat="47.71043" lon="5.08854">
        <ele>487.92</ele>
        <time>2021-08-27T14:41:33Z</time>
      </trkpt>
      <trkpt lat="47.71052" lon="5.08842">
        <ele>487.54</ele>
        <time>2021-08-27T14:41:46Z</time>
      </trkpt>
      <trkpt lat="47.71062" lon="5.08822">
        <ele>487.65</ele>
        <time>2021-08-27T14:42:04Z</time>
      </trkpt>
      <trkpt lat="47.7107" lon="5.08807">
        <ele>487.68</ele>
        <time>2021-08-27T14:42:20Z</time>
      </trkpt>
      <trkpt lat="47.71079" lon="5.08799">
        <ele>487.66</ele>
        <time>2021-08-27T14:42:36Z</time>
      </trkpt>
      <trkpt lat="47.71083" lon="5.08789">
        <ele>487.53</ele>
        <time>2021-08-27T14:42:48Z</time>
      </trkpt>
      <trkpt lat="47.7109" lon="5.08776">
        <ele>487.64</ele>
        <time>2021-08-27T14:43:01Z</time>
      </trkpt>
      <trkpt lat="47.71092" lon="5.08771">
        <ele>487.55</ele>
        <time>2021-08-27T14:43:19Z</time>
      </trkpt>
      <trkpt lat="47.71096" lon="5.08779">
        <ele>487.78</ele>
        <time>2021-08-27T14:43:44Z</time>
      </trkpt>
      <trkpt lat="47.71096" lon="5.08778">
        <ele>487.54</ele>
        <time>2021-08-27T14:44:18Z</time>
      </trkpt>
      <trkpt lat="47.71098" lon="5.08774">
        <ele>487.32</ele>
        <time>2021-08-27T14:45:21Z</time>
      </trkpt>
      <trkpt lat="47.71096" lon="5.08772">
        <ele>487.19</ele>
        <time>2021-08-27T14:46:06Z</time>
      </trkpt>
      <trkpt lat="47.71096" lon="5.0877">
        <ele>487.02</ele>
        <time>2021-08-27T14:46:43Z</time>
      </trkpt>
      <trkpt lat="47.71096" lon="5.08769">
        <ele>487.16</ele>
        <time>2021-08-27T14:47:12Z</time>
      </trkpt>
      <trkpt lat="47.71099" lon="5.08766">
        <ele>487.29</ele>
        <time>2021-08-27T14:47:22Z</time>
      </trkpt>
      <trkpt lat="47.711" lon="5.08766">
        <ele>486.92</ele>
        <time>2021-08-27T14:47:37Z</time>
      </trkpt>
      <trkpt lat="47.71102" lon="5.0876">
        <ele>486.57</ele>
        <time>2021-08-27T14:48:00Z</time>
      </trkpt>
      <trkpt lat="47.71102" lon="5.08759">
        <ele>486.74</ele>
        <time>2021-08-27T14:48:01Z</time>
      </trkpt>
      <trkpt lat="47.71111" lon="5.08743">
        <ele>486.12</ele>
        <time>2021-08-27T14:48:14Z</time>
      </trkpt>
      <trkpt lat="47.71121" lon="5.08727">
        <ele>485.07</ele>
        <time>2021-08-27T14:48:29Z</time>
      </trkpt>
      <trkpt lat="47.71131" lon="5.08708">
        <ele>483.98</ele>
        <time>2021-08-27T14:48:45Z</time>
      </trkpt>
      <trkpt lat="47.7114" lon="5.08694">
        <ele>483.64</ele>
        <time>2021-08-27T14:48:59Z</time>
      </trkpt>
      <trkpt lat="47.71144" lon="5.08685">
        <ele>482.36</ele>
        <time>2021-08-27T14:49:11Z</time>
      </trkpt>
      <trkpt lat="47.7115" lon="5.08673">
        <ele>481.52</ele>
        <time>2021-08-27T14:49:24Z</time>
      </trkpt>
      <trkpt lat="47.71159" lon="5.08657">
        <ele>480.25</ele>
        <time>2021-08-27T14:49:38Z</time>
      </trkpt>
      <trkpt lat="47.71168" lon="5.08641">
        <ele>479</ele>
        <time>2021-08-27T14:49:53Z</time>
      </trkpt>
      <trkpt lat="47.71176" lon="5.08637">
        <ele>478.67</ele>
        <time>2021-08-27T14:50:26Z</time>
      </trkpt>
      <trkpt lat="47.71177" lon="5.08626">
        <ele>478.26</ele>
        <time>2021-08-27T14:50:44Z</time>
      </trkpt>
      <trkpt lat="47.71183" lon="5.08611">
        <ele>477.23</ele>
        <time>2021-08-27T14:50:59Z</time>
      </trkpt>
      <trkpt lat="47.71195" lon="5.08596">
        <ele>476.56</ele>
        <time>2021-08-27T14:51:12Z</time>
      </trkpt>
      <trkpt lat="47.71201" lon="5.08587">
        <ele>474.96</ele>
        <time>2021-08-27T14:51:26Z</time>
      </trkpt>
      <trkpt lat="47.71203" lon="5.08577">
        <ele>472.95</ele>
        <time>2021-08-27T14:51:41Z</time>
      </trkpt>
      <trkpt lat="47.71208" lon="5.08575">
        <ele>473.15</ele>
        <time>2021-08-27T14:52:04Z</time>
      </trkpt>
    </trkseg>
  </trk>
</gpx>